Latest Weather Observations for Karratha

IDW60801

Issued at 12:02 pm WST Thursday 5 March 2015 (issued every 30 minutes, with the page automatically refreshed every 10 minutes)

About weather observations | Map of weather stations | Latest weather observations for WA | Other Formats
Station Details ID: 004083 Name: KARRATHA AERO Lat: -20.71 Lon: 116.77 Height: 5.3 m
Data from the previous 72 hours. | See also: Recent months at Karratha
Date/Time
WST
Temp
°C
App
Temp
°C
Dew
Point
Rel
Hum
%
Delta-T
°C
Wind Press
QNH
hPa
Press
MSL
hPa
Rain
since 9 am
mm
Dir
 
Spd
km/h
Gust
km/h
Spd
kts
Gust
kts
05/12:00pm 29.8 29.0 23.3 68 4.5 E 33 41 18 22 1009.4 1009.4 0.0
05/11:30am 28.9 27.6 23.1 71 4.0 E 35 43 19 23 1009.3 1009.3 0.0
05/11:00am 28.1 27.0 22.8 73 3.6 E 33 41 18 22 1009.6 1009.6 0.0
05/10:30am 27.6 27.4 23.4 78 2.9 ESE 30 37 16 20 1009.8 1009.8 0.0
05/10:00am 27.0 26.2 23.0 79 2.7 ESE 32 43 17 23 1010.2 1010.2 0.0
05/09:30am 26.5 27.4 23.4 83 2.1 ESE 24 32 13 17 1010.4 1010.4 0.0
05/09:00am 24.8 26.4 23.2 91 1.1 ESE 20 26 11 14 1010.8 1010.8 9.0
05/08:30am 23.3 24.7 22.6 96 0.5 ESE 19 24 10 13 1010.8 1010.8 9.0
05/08:19am 23.2 23.9 22.2 94 0.7 E 22 26 12 14 1010.9 1010.9 8.8
05/08:03am 23.6 24.6 22.2 92 0.9 ENE 20 26 11 14 1010.9 1010.9 8.0
05/08:00am 23.8 24.5 22.2 91 1.1 ENE 22 30 12 16 1011.0 1011.0 7.4
05/07:30am 25.2 26.5 22.7 86 1.7 E 20 28 11 15 1009.7 1009.7 5.4
05/07:00am 25.7 30.3 24.7 94 0.7 SE 9 13 5 7 1008.8 1008.8 4.8
05/06:30am 25.3 29.3 24.4 95 0.6 SSE 11 13 6 7 1008.4 1008.4 4.8
05/06:00am 25.3 28.9 24.3 94 0.7 SSW 13 15 7 8 1008.4 1008.4 4.8
05/05:30am 25.2 29.1 24.2 94 0.7 SSW 11 13 6 7 1008.1 1008.1 4.8
05/05:00am 25.1 29.0 24.2 95 0.6 SSW 11 13 6 7 1008.0 1008.0 4.8
05/04:30am 25.1 29.4 24.2 95 0.6 S 9 13 5 7 1007.9 1007.9 4.8
05/04:00am 25.0 28.4 24.1 95 0.6 SSW 13 15 7 8 1008.0 1008.0 4.8
05/03:30am 24.9 28.4 24.2 96 0.5 SSW 13 17 7 9 1007.8 1007.8 4.8
05/03:00am 24.9 28.5 24.4 97 0.3 SSW 13 17 7 9 1007.9 1007.9 4.8
05/02:30am 24.9 28.3 24.6 98 0.2 SSW 15 19 8 10 1008.1 1008.1 4.8
05/02:00am 24.8 28.9 24.5 98 0.2 SW 11 17 6 9 1008.3 1008.3 4.8
05/01:30am 24.8 28.0 24.3 97 0.3 S 15 20 8 11 1008.7 1008.7 4.6
05/01:00am 25.1 27.8 24.2 95 0.6 S 17 20 9 11 1009.1 1009.1 3.8
05/12:30am 25.4 28.7 24.5 95 0.6 SSE 15 19 8 10 1009.6 1009.6 3.8
05/12:00am 25.6 29.6 24.4 93 0.8 SE 11 17 6 9 1010.1 1010.1 2.6
 
Date/Time
WST
Temp
°C
App
Temp
°C
Dew
Point
Rel
Hum
%
Delta-T
°C
Wind Press
QNH
hPa
Press
MSL
hPa
Rain
since 9 am
mm
Dir
 
Spd
km/h
Gust
km/h
Spd
kts
Gust
kts
04/11:30pm 26.1 30.5 24.5 91 1.1 SSE 9 15 5 8 1010.5 1010.5 1.6
04/11:00pm 26.4 31.3 25.2 93 0.8 SE 9 13 5 7 1010.1 1010.1 1.6
04/10:30pm 26.3 26.7 24.5 90 1.2 E 30 39 16 21 1010.7 1010.7 0.8
04/10:00pm 28.9 29.4 24.0 75 3.4 E 28 37 15 20 1010.3 1010.3 0.0
04/09:30pm 29.2 30.6 23.6 72 3.9 E 22 28 12 15 1010.0 1010.0 0.0
04/09:00pm 29.5 31.2 23.4 69 4.2 E 20 30 11 16 1009.6 1009.6 0.0
04/08:30pm 29.6 31.4 23.5 69 4.2 ENE 20 28 11 15 1009.1 1009.1 0.0
04/08:00pm 29.7 31.5 23.6 69 4.2 E 20 24 11 13 1008.8 1008.8 0.0
04/07:30pm 29.4 31.0 23.3 69 4.2 E 20 28 11 15 1008.5 1008.5 0.0
04/07:00pm 29.2 29.4 23.4 71 4.0 E 28 37 15 20 1008.1 1008.1 0.0
04/06:30pm 29.8 30.1 24.2 72 3.9 E 30 35 16 19 1007.5 1007.5 0.0
04/06:00pm 30.4 32.7 25.7 76 3.3 NE 24 30 13 16 1007.4 1007.4 0.0
04/05:30pm 29.9 31.8 25.6 78 3.0 NE 26 35 14 19 1007.2 1007.2 0.0
04/05:00pm 30.0 31.8 25.5 77 3.2 NE 26 35 14 19 1006.9 1006.9 0.0
04/04:30pm 30.9 31.5 24.8 70 4.3 NE 30 37 16 20 1006.8 1006.7 0.0
04/04:00pm 31.2 33.7 25.3 71 4.2 NE 22 30 12 16 1006.9 1006.9 0.0
04/03:30pm 30.9 32.6 24.1 67 4.7 ENE 22 26 12 14 1007.1 1007.1 0.0
04/03:00pm 30.5 32.7 24.9 72 3.9 NE 22 30 12 16 1007.3 1007.3 0.0
04/02:30pm 30.0 30.9 24.6 73 3.8 NE 28 35 15 19 1007.9 1007.9 0.0
04/02:00pm 30.2 30.5 24.8 73 3.8 NE 32 37 17 20 1008.1 1008.1 0.0
04/01:30pm 30.6 30.4 24.0 68 4.6 ENE 32 39 17 21 1008.3 1008.3 0.0
04/01:00pm 30.6 30.6 23.8 67 4.7 ENE 30 35 16 19 1008.7 1008.7 0.0
04/12:30pm 30.1 28.7 23.0 65 4.9 ENE 35 43 19 23 1009.0 1009.0 0.0
04/12:00pm 30.7 30.1 23.4 65 5.0 ENE 32 41 17 22 1009.1 1009.1 0.0
04/11:30am 30.1 29.8 23.8 69 4.4 E 32 43 17 23 1009.3 1009.3 0.0
04/11:00am 27.7 27.2 23.9 80 2.6 E 33 44 18 24 1009.8 1009.8 0.0
04/10:30am 27.5 26.7 23.3 78 2.9 E 33 41 18 22 1010.2 1010.2 0.0
04/10:00am 29.4 28.1 22.1 65 4.9 E 32 41 17 22 1010.1 1010.1 0.0
04/09:30am 29.3 28.2 22.5 67 4.6 E 32 39 17 21 1009.8 1009.8 0.0
04/09:00am 30.1 30.1 23.0 65 4.9 ESE 28 33 15 18 1009.5 1009.5 0.0
04/08:30am 30.0 33.0 23.4 67 4.5 ESE 13 17 7 9 1009.2 1009.2 0.0
04/08:00am 29.6 32.5 23.1 68 4.5 SE 13 17 7 9 1008.5 1008.5 0.0
04/07:30am 29.5 31.7 23.2 69 4.3 SE 17 22 9 12 1008.7 1008.7 0.0
04/07:00am 28.1 31.3 22.3 70 3.9 SSW 9 11 5 6 1008.7 1008.7 0.0
04/06:30am 27.7 31.3 22.4 73 3.6 SW 7 9 4 5 1008.8 1008.8 0.0
04/06:00am 28.0 31.4 22.7 73 3.6 SW 9 13 5 7 1008.4 1008.4 0.0
04/05:30am 28.1 31.6 22.8 73 3.6 SW 9 11 5 6 1008.3 1008.3 0.0
04/05:00am 28.1 31.2 22.8 73 3.6 SW 11 15 6 8 1007.7 1007.7 0.0
04/04:30am 28.2 30.9 22.9 73 3.6 SW 13 15 7 8 1007.6 1007.6 0.0
04/04:00am 28.2 30.9 22.9 73 3.6 SW 13 17 7 9 1007.6 1007.6 0.0
04/03:30am 28.3 31.0 23.4 75 3.4 SW 15 20 8 11 1007.5 1007.5 0.0
04/03:00am 28.3 30.6 23.4 75 3.4 SW 17 20 9 11 1007.4 1007.4 0.0
04/02:30am 28.4 30.2 23.3 74 3.5 SW 19 22 10 12 1007.4 1007.4 0.0
04/02:00am 28.3 30.1 23.2 74 3.5 SW 19 24 10 13 1007.5 1007.5 0.0
04/01:30am 28.2 30.6 23.6 76 3.2 SW 17 22 9 12 1007.6 1007.6 0.0
04/01:00am 28.5 30.1 23.9 76 3.2 WSW 22 28 12 15 1007.8 1007.8 0.0
04/12:30am 28.4 30.3 23.8 76 3.2 WSW 20 26 11 14 1008.1 1008.1 0.0
04/12:00am 28.8 30.2 23.5 73 3.6 W 22 28 12 15 1008.6 1008.6 0.0
 
Date/Time
WST
Temp
°C
App
Temp
°C
Dew
Point
Rel
Hum
%
Delta-T
°C
Wind Press
QNH
hPa
Press
MSL
hPa
Rain
since 9 am
mm
Dir
 
Spd
km/h
Gust
km/h
Spd
kts
Gust
kts
03/11:30pm 28.7 29.9 23.8 75 3.4 W 24 28 13 15 1008.6 1008.6 0.0
03/11:00pm 28.8 30.8 24.6 78 2.9 W 22 26 12 14 1008.7 1008.7 0.0
03/10:30pm 29.0 31.2 24.3 76 3.3 W 20 26 11 14 1009.0 1009.0 0.0
03/10:00pm 29.2 30.9 23.4 71 4.0 W 20 24 11 13 1008.7 1008.7 0.0
03/09:30pm 29.2 31.5 23.4 71 4.0 WNW 17 20 9 11 1008.9 1008.9 0.0
03/09:00pm 29.1 31.6 23.8 73 3.7 WNW 17 22 9 12 1008.6 1008.6 0.0
03/08:30pm 29.3 32.0 24.2 74 3.5 WNW 17 20 9 11 1008.3 1008.3 0.0
03/08:00pm 29.3 31.4 23.7 72 3.9 WNW 19 22 10 12 1007.8 1007.8 0.0
03/07:30pm 29.5 31.3 23.2 69 4.3 WNW 19 22 10 12 1007.6 1007.6 0.0
03/07:00pm 29.7 32.0 23.4 69 4.3 WNW 17 24 9 13 1007.0 1007.0 0.0
03/06:30pm 30.3 31.7 22.5 63 5.3 NW 19 24 10 13 1006.3 1006.2 0.0
03/06:00pm 31.3 32.3 21.8 57 6.4 WNW 19 26 10 14 1006.0 1005.9 0.0
03/05:30pm 31.9 32.8 22.0 55 6.7 WNW 20 28 11 15 1005.6 1005.5 0.0
03/05:00pm 32.7 33.1 19.9 46 8.5 NW 17 20 9 11 1005.4 1005.3 0.0
03/04:30pm 33.2 33.9 20.4 47 8.5 NW 17 22 9 12 1005.6 1005.5 0.0
03/04:00pm 33.5 34.5 21.0 48 8.4 NNW 17 24 9 13 1005.5 1005.4 0.0
03/03:30pm 33.3 34.5 21.5 50 8.0 NNW 17 24 9 13 1005.5 1005.4 0.0
03/03:00pm 32.9 34.0 22.0 52 7.4 NNW 19 26 10 14 1005.9 1005.8 0.0
03/02:30pm 32.9 34.6 22.4 54 7.2 N 17 24 9 13 1006.3 1006.2 0.0
03/02:00pm 34.0 35.5 23.1 53 7.6 NW 20 26 11 14 1006.4 1006.3 0.0
03/01:30pm 34.2 36.0 23.6 54 7.4 NNW 20 28 11 15 1006.6 1006.5 0.0
03/01:00pm 33.6 36.0 23.6 56 7.0 NNW 17 26 9 14 1007.0 1007.0 0.0
03/12:30pm 34.1 36.1 22.2 50 8.1 NNW 15 22 8 12 1007.3 1007.3 0.0
03/12:00pm 33.6 35.7 22.4 52 7.7 WNW 15 20 8 11 1007.6 1007.6 0.0
03/11:30am 33.0 35.0 23.0 55 6.9 WNW 17 22 9 12 1007.8 1007.8 0.0
03/11:00am 32.5 33.5 21.0 50 7.7 NW 17 22 9 12 1008.1 1008.1 0.0
03/10:30am 32.1 33.5 21.9 54 6.9 WNW 17 24 9 13 1008.4 1008.4 0.0
03/10:00am 31.1 33.6 23.2 63 5.4 WNW 15 20 8 11 1008.6 1008.6 0.0
03/09:30am 30.9 33.0 22.5 61 5.7 W 15 20 8 11 1008.6 1008.6 0.0
03/09:00am 30.5 32.8 22.7 63 5.3 W 15 22 8 12 1008.7 1008.7 0.0
03/08:30am 30.0 32.4 23.7 69 4.4 W 17 22 9 12 1008.6 1008.6 0.0
03/08:00am 28.8 31.0 23.2 71 3.8 WSW 17 22 9 12 1008.4 1008.4 0.0
03/07:30am 28.5 30.5 23.6 75 3.4 W 19 22 10 12 1007.9 1007.9 0.0
03/07:00am 28.0 29.4 22.9 74 3.5 W 20 22 11 12 1007.7 1007.7 0.0
03/06:30am 27.3 29.9 23.3 79 2.7 WSW 15 19 8 10 1007.6 1007.6 0.0
03/06:00am 27.1 29.7 23.3 80 2.6 SW 15 19 8 10 1007.4 1007.4 0.0
03/05:30am 27.0 29.6 23.3 80 2.5 SW 15 19 8 10 1007.1 1007.1 0.0
03/05:00am 27.4 29.2 23.2 78 2.9 SW 19 24 10 13 1006.7 1006.6 0.0
03/04:30am 27.5 29.3 23.5 79 2.7 WSW 20 28 11 15 1006.4 1006.3 0.0
03/04:00am 27.7 29.8 24.1 81 2.5 WSW 20 24 11 13 1006.3 1006.2 0.0
03/03:30am 27.6 29.8 24.2 82 2.4 WSW 20 24 11 13 1006.3 1006.2 0.0
03/03:00am 27.7 29.9 23.9 80 2.6 WSW 19 22 10 12 1006.4 1006.3 0.0
03/02:30am 27.8 29.9 23.8 79 2.8 WSW 19 24 10 13 1006.2 1006.1 0.0
03/02:00am 28.0 29.9 23.8 78 2.9 WSW 20 26 11 14 1006.3 1006.2 0.0
03/01:30am 28.3 30.0 24.1 78 2.9 WSW 22 30 12 16 1006.6 1006.5 0.0
03/01:00am 28.3 30.1 24.3 79 2.8 W 22 26 12 14 1006.8 1006.7 0.0
03/12:30am 28.3 30.1 24.3 79 2.8 W 22 28 12 15 1007.0 1007.0 0.0
03/12:00am 28.4 29.7 24.0 77 3.0 W 24 30 13 16 1007.1 1007.1 0.0
 
Date/Time
WST
Temp
°C
App
Temp
°C
Dew
Point
Rel
Hum
%
Delta-T
°C
Wind Press
QNH
hPa
Press
MSL
hPa
Rain
since 9 am
mm
Dir
 
Spd
km/h
Gust
km/h
Spd
kts
Gust
kts
02/11:30pm 28.4 29.7 24.0 77 3.0 W 24 28 13 15 1007.1 1007.1 0.0
02/11:00pm 28.6 29.8 23.9 75 3.3 W 24 28 13 15 1007.3 1007.3 0.0
02/10:30pm 28.6 29.4 24.4 78 2.9 W 28 33 15 18 1007.2 1007.2 0.0
02/10:00pm 28.7 29.5 24.5 78 2.9 W 28 35 15 19 1007.0 1007.0 0.0
02/09:30pm 28.8 29.3 24.6 78 2.9 W 30 37 16 20 1006.9 1006.9 0.0
02/09:00pm 28.8 28.9 23.9 75 3.4 W 30 39 16 21 1006.4 1006.3 0.0
02/08:30pm 28.9 29.4 23.3 72 3.8 WNW 26 33 14 18 1006.2 1006.1 0.0
02/08:00pm 29.1 30.0 23.3 71 4.0 WNW 24 35 13 19 1006.0 1005.9 0.0
02/07:30pm 29.3 30.3 23.5 71 4.0 WNW 24 35 13 19 1005.4 1005.3 0.0
02/07:00pm 29.4 29.9 23.3 69 4.2 WNW 26 33 14 18 1005.1 1005.0 0.0
02/06:30pm 29.8 29.9 22.5 65 5.0 WNW 26 33 14 18 1004.8 1004.7 0.0
02/06:00pm 30.5 30.1 22.4 62 5.5 WNW 28 37 15 20 1004.3 1004.2 0.0
02/05:30pm 30.6 30.0 22.7 62 5.4 WNW 30 37 16 20 1004.0 1003.9 0.0
02/05:00pm 31.4 31.5 23.2 61 5.7 WNW 28 39 15 21 1003.7 1003.6 0.0
02/04:30pm 32.1 31.6 22.2 56 6.7 WNW 28 35 15 19 1003.5 1003.4 0.0
02/04:00pm 33.2 31.9 20.7 47 8.4 WNW 28 39 15 21 1003.4 1003.3 0.0
02/03:30pm 32.6 31.7 22.1 54 7.2 WNW 30 35 16 19 1003.7 1003.6 0.0
02/03:00pm 33.8 32.8 21.2 47 8.5 WNW 28 33 15 18 1004.2 1004.1 0.0
02/02:30pm 33.7 32.5 20.1 44 9.0 WNW 26 32 14 17 1004.4 1004.3 0.0
02/02:00pm 33.6 33.1 21.4 48 8.3 WNW 26 32 14 17 1004.6 1004.5 0.0
02/01:30pm 34.3 34.3 21.7 47 8.6 WNW 24 30 13 16 1005.0 1004.9 0.0
02/01:00pm 34.0 34.6 22.1 50 8.2 WNW 22 30 12 16 1005.4 1005.3 0.0
02/12:30pm 33.4 34.4 22.2 52 7.7 WNW 20 28 11 15 1005.8 1005.7 0.0

Other Formats:

Comma delimited format used in spreadsheet applications
http://www.bom.gov.au/fwo/IDW60801/IDW60801.95307.axf

JavaScript Object Notation format (JSON) in row-major order
http://www.bom.gov.au/fwo/IDW60801/IDW60801.95307.json